sensor_id;sensor_type;location;lat;lon;timestamp;pressure;altitude;pressure_sealevel;temperature;humidity
72558;BME280;60583;50.094;8.748;2023-07-13T00:01:30;100315.94;;;20.55;52.29
72558;BME280;60583;50.094;8.748;2023-07-13T00:03:57;100317.25;;;20.38;53.00
72558;BME280;60583;50.094;8.748;2023-07-13T00:06:24;100319.41;;;20.35;53.08
72558;BME280;60583;50.094;8.748;2023-07-13T00:08:49;100315.91;;;20.45;53.06
72558;BME280;60583;50.094;8.748;2023-07-13T00:11:16;100311.34;;;20.51;52.82
72558;BME280;60583;50.094;8.748;2023-07-13T00:13:43;100327.94;;;20.64;52.39
72558;BME280;60583;50.094;8.748;2023-07-13T00:16:10;100328.19;;;20.63;52.60
72558;BME280;60583;50.094;8.748;2023-07-13T00:18:35;100335.81;;;20.76;52.12
72558;BME280;60583;50.094;8.748;2023-07-13T00:21:01;100321.72;;;20.74;51.83
72558;BME280;60583;50.094;8.748;2023-07-13T00:23:37;100336.91;;;20.85;51.16
72558;BME280;60583;50.094;8.748;2023-07-13T00:26:04;100336.91;;;20.85;50.73
72558;BME280;60583;50.094;8.748;2023-07-13T00:28:29;100351.59;;;20.94;50.31
72558;BME280;60583;50.094;8.748;2023-07-13T00:30:55;100340.19;;;20.92;50.76
72558;BME280;60583;50.094;8.748;2023-07-13T00:33:21;100327.69;;;20.81;50.35
72558;BME280;60583;50.094;8.748;2023-07-13T00:35:47;100329.09;;;20.93;49.99
72558;BME280;60583;50.094;8.748;2023-07-13T00:38:14;100325.03;;;20.96;50.49
72558;BME280;60583;50.094;8.748;2023-07-13T00:40:39;100320.66;;;20.90;50.54
72558;BME280;60583;50.094;8.748;2023-07-13T00:43:11;100342.09;;;20.91;50.57
72558;BME280;60583;50.094;8.748;2023-07-13T00:48:14;100349.69;;;20.94;50.01
72558;BME280;60583;50.094;8.748;2023-07-13T00:50:41;100333.94;;;20.81;50.06
72558;BME280;60583;50.094;8.748;2023-07-13T00:53:08;100356.44;;;20.92;49.89
72558;BME280;60583;50.094;8.748;2023-07-13T00:55:34;100349.91;;;20.78;51.18
72558;BME280;60583;50.094;8.748;2023-07-13T00:58:01;100349.63;;;20.74;51.24
72558;BME280;60583;50.094;8.748;2023-07-13T01:00:29;100347.97;;;20.63;51.60
72558;BME280;60583;50.094;8.748;2023-07-13T01:02:54;100345.50;;;20.57;52.12
72558;BME280;60583;50.094;8.748;2023-07-13T01:05:23;100360.69;;;20.58;51.35
72558;BME280;60583;50.094;8.748;2023-07-13T01:07:50;100358.25;;;20.61;52.04
72558;BME280;60583;50.094;8.748;2023-07-13T01:10:22;100349.00;;;20.57;51.93
72558;BME280;60583;50.094;8.748;2023-07-13T01:12:48;100336.75;;;20.45;51.67
72558;BME280;60583;50.094;8.748;2023-07-13T01:15:33;100355.72;;;20.40;51.84
72558;BME280;60583;50.094;8.748;2023-07-13T01:17:59;100351.13;;;20.45;51.40
72558;BME280;60583;50.094;8.748;2023-07-13T01:20:25;100341.06;;;20.35;51.57
72558;BME280;60583;50.094;8.748;2023-07-13T01:22:50;100338.81;;;20.22;52.10
72558;BME280;60583;50.094;8.748;2023-07-13T01:25:16;100343.25;;;19.97;53.00
72558;BME280;60583;50.094;8.748;2023-07-13T01:27:42;100339.44;;;19.93;53.40
72558;BME280;60583;50.094;8.748;2023-07-13T01:30:07;100337.25;;;19.90;53.65
72558;BME280;60583;50.094;8.748;2023-07-13T01:32:33;100346.97;;;19.86;53.14
72558;BME280;60583;50.094;8.748;2023-07-13T01:34:59;100336.69;;;19.88;52.62
72558;BME280;60583;50.094;8.748;2023-07-13T01:37:26;100343.78;;;19.94;52.75
72558;BME280;60583;50.094;8.748;2023-07-13T01:39:54;100332.16;;;19.93;53.15
72558;BME280;60583;50.094;8.748;2023-07-13T01:42:20;100341.97;;;20.09;52.90
72558;BME280;60583;50.094;8.748;2023-07-13T01:44:45;100342.53;;;20.06;52.73
72558;BME280;60583;50.094;8.748;2023-07-13T01:47:11;100341.94;;;20.04;53.26
72558;BME280;60583;50.094;8.748;2023-07-13T01:49:36;100350.00;;;19.94;53.30
72558;BME280;60583;50.094;8.748;2023-07-13T01:52:03;100343.75;;;19.89;53.20
72558;BME280;60583;50.094;8.748;2023-07-13T01:54:29;100350.22;;;19.88;53.35
72558;BME280;60583;50.094;8.748;2023-07-13T01:56:54;100345.34;;;19.85;52.63
72558;BME280;60583;50.094;8.748;2023-07-13T01:59:19;100326.13;;;19.81;53.46
72558;BME280;60583;50.094;8.748;2023-07-13T02:01:45;100358.91;;;19.90;54.02
72558;BME280;60583;50.094;8.748;2023-07-13T02:04:10;100370.28;;;19.92;54.00
72558;BME280;60583;50.094;8.748;2023-07-13T02:06:36;100362.16;;;19.92;53.75
72558;BME280;60583;50.094;8.748;2023-07-13T02:09:01;100365.44;;;19.94;53.63
72558;BME280;60583;50.094;8.748;2023-07-13T02:11:26;100345.03;;;19.76;53.50
72558;BME280;60583;50.094;8.748;2023-07-13T02:13:59;100360.75;;;19.84;53.48
72558;BME280;60583;50.094;8.748;2023-07-13T02:16:25;100346.41;;;19.79;53.49
72558;BME280;60583;50.094;8.748;2023-07-13T02:18:50;100363.19;;;19.81;53.42
72558;BME280;60583;50.094;8.748;2023-07-13T02:21:17;100354.75;;;19.77;53.05
72558;BME280;60583;50.094;8.748;2023-07-13T02:23:43;100346.34;;;19.73;53.32
72558;BME280;60583;50.094;8.748;2023-07-13T02:26:10;100374.00;;;19.81;53.24
72558;BME280;60583;50.094;8.748;2023-07-13T02:28:35;100370.41;;;19.70;53.77
72558;BME280;60583;50.094;8.748;2023-07-13T02:31:05;100375.53;;;19.71;53.65
72558;BME280;60583;50.094;8.748;2023-07-13T02:33:31;100372.31;;;19.74;53.58
72558;BME280;60583;50.094;8.748;2023-07-13T02:35:56;100374.47;;;19.72;53.75
72558;BME280;60583;50.094;8.748;2023-07-13T02:38:21;100345.63;;;19.51;53.72
72558;BME280;60583;50.094;8.748;2023-07-13T02:40:47;100361.66;;;19.58;54.06
72558;BME280;60583;50.094;8.748;2023-07-13T02:43:12;100355.06;;;19.49;53.79
72558;BME280;60583;50.094;8.748;2023-07-13T02:45:38;100377.78;;;19.48;54.22
72558;BME280;60583;50.094;8.748;2023-07-13T02:48:04;100377.44;;;19.39;54.25
72558;BME280;60583;50.094;8.748;2023-07-13T02:50:30;100373.78;;;19.29;53.77
72558;BME280;60583;50.094;8.748;2023-07-13T02:52:55;100387.34;;;19.34;53.48
72558;BME280;60583;50.094;8.748;2023-07-13T02:55:21;100376.28;;;19.35;52.66
72558;BME280;60583;50.094;8.748;2023-07-13T02:57:46;100379.31;;;19.39;52.31
72558;BME280;60583;50.094;8.748;2023-07-13T03:00:11;100377.06;;;19.31;51.70
72558;BME280;60583;50.094;8.748;2023-07-13T03:02:37;100380.84;;;19.30;51.57
72558;BME280;60583;50.094;8.748;2023-07-13T03:05:02;100394.41;;;19.35;51.95
72558;BME280;60583;50.094;8.748;2023-07-13T03:07:30;100379.84;;;19.14;51.94
72558;BME280;60583;50.094;8.748;2023-07-13T03:09:56;100397.56;;;19.27;52.25
72558;BME280;60583;50.094;8.748;2023-07-13T03:12:23;100400.59;;;19.30;51.96
72558;BME280;60583;50.094;8.748;2023-07-13T03:14:48;100392.09;;;19.22;52.17
72558;BME280;60583;50.094;8.748;2023-07-13T03:17:13;100413.50;;;19.23;52.33
72558;BME280;60583;50.094;8.748;2023-07-13T03:19:39;100405.88;;;19.20;52.33
72558;BME280;60583;50.094;8.748;2023-07-13T03:22:05;100414.06;;;19.25;51.95
72558;BME280;60583;50.094;8.748;2023-07-13T03:24:32;100416.44;;;19.22;52.17
72558;BME280;60583;50.094;8.748;2023-07-13T03:26:58;100412.13;;;18.99;52.64
72558;BME280;60583;50.094;8.748;2023-07-13T03:29:23;100420.13;;;19.10;52.49
72558;BME280;60583;50.094;8.748;2023-07-13T03:31:49;100419.75;;;19.02;53.02
72558;BME280;60583;50.094;8.748;2023-07-13T03:34:14;100420.06;;;19.05;53.05
72558;BME280;60583;50.094;8.748;2023-07-13T03:36:39;100399.59;;;18.88;52.69
72558;BME280;60583;50.094;8.748;2023-07-13T03:39:05;100418.72;;;18.86;53.01
72558;BME280;60583;50.094;8.748;2023-07-13T03:41:33;100427.41;;;18.88;53.07
72558;BME280;60583;50.094;8.748;2023-07-13T03:43:59;100410.56;;;18.81;52.87
72558;BME280;60583;50.094;8.748;2023-07-13T03:46:24;100431.19;;;18.87;52.24
72558;BME280;60583;50.094;8.748;2023-07-13T03:48:49;100424.47;;;18.90;52.35
72558;BME280;60583;50.094;8.748;2023-07-13T03:51:16;100439.97;;;18.99;52.39
72558;BME280;60583;50.094;8.748;2023-07-13T03:53:43;100436.50;;;19.04;52.17
72558;BME280;60583;50.094;8.748;2023-07-13T03:56:09;100402.53;;;18.86;52.15
72558;BME280;60583;50.094;8.748;2023-07-13T03:58:38;100444.50;;;19.16;52.38
72558;BME280;60583;50.094;8.748;2023-07-13T04:01:05;100447.66;;;19.07;52.83
72558;BME280;60583;50.094;8.748;2023-07-13T04:03:31;100441.41;;;19.07;53.93
72558;BME280;60583;50.094;8.748;2023-07-13T04:05:58;100440.09;;;19.09;53.75
72558;BME280;60583;50.094;8.748;2023-07-13T04:08:26;100429.38;;;18.93;53.64
72558;BME280;60583;50.094;8.748;2023-07-13T04:10:51;100419.88;;;18.90;53.97
72558;BME280;60583;50.094;8.748;2023-07-13T04:13:17;100427.22;;;18.95;54.06
72558;BME280;60583;50.094;8.748;2023-07-13T04:15:42;100446.00;;;19.06;53.69
72558;BME280;60583;50.094;8.748;2023-07-13T04:18:08;100425.69;;;19.04;53.55
72558;BME280;60583;50.094;8.748;2023-07-13T04:20:34;100441.81;;;19.16;52.77
72558;BME280;60583;50.094;8.748;2023-07-13T04:22:59;100445.41;;;19.26;53.27
72558;BME280;60583;50.094;8.748;2023-07-13T04:25:26;100442.22;;;19.29;52.82
72558;BME280;60583;50.094;8.748;2023-07-13T04:27:52;100445.78;;;19.35;52.71
72558;BME280;60583;50.094;8.748;2023-07-13T04:30:18;100442.91;;;19.41;52.78
72558;BME280;60583;50.094;8.748;2023-07-13T04:32:44;100449.84;;;19.59;52.67
72558;BME280;60583;50.094;8.748;2023-07-13T04:35:09;100447.19;;;19.64;52.57
72558;BME280;60583;50.094;8.748;2023-07-13T04:37:35;100414.03;;;19.47;51.70
72558;BME280;60583;50.094;8.748;2023-07-13T04:40:01;100439.69;;;19.71;51.24
72558;BME280;60583;50.094;8.748;2023-07-13T04:42:26;100432.38;;;19.71;51.25
72558;BME280;60583;50.094;8.748;2023-07-13T04:44:52;100448.47;;;19.83;51.20
72558;BME280;60583;50.094;8.748;2023-07-13T04:47:18;100442.50;;;19.81;51.02
72558;BME280;60583;50.094;8.748;2023-07-13T04:49:45;100433.31;;;19.87;50.57
72558;BME280;60583;50.094;8.748;2023-07-13T04:52:10;100451.84;;;20.00;50.86
72558;BME280;60583;50.094;8.748;2023-07-13T04:54:37;100456.84;;;20.13;50.51
72558;BME280;60583;50.094;8.748;2023-07-13T04:57:03;100453.66;;;20.21;49.94
72558;BME280;60583;50.094;8.748;2023-07-13T04:59:32;100457.50;;;20.25;50.57
72558;BME280;60583;50.094;8.748;2023-07-13T05:01:57;100455.88;;;20.29;49.94
72558;BME280;60583;50.094;8.748;2023-07-13T05:04:23;100451.03;;;20.31;49.76
72558;BME280;60583;50.094;8.748;2023-07-13T05:06:48;100443.50;;;20.39;49.59
72558;BME280;60583;50.094;8.748;2023-07-13T05:09:14;100448.34;;;20.31;49.33
72558;BME280;60583;50.094;8.748;2023-07-13T05:11:39;100451.88;;;20.37;49.45
72558;BME280;60583;50.094;8.748;2023-07-13T05:14:04;100456.13;;;20.23;49.71
72558;BME280;60583;50.094;8.748;2023-07-13T05:16:30;100457.59;;;20.41;49.18
72558;BME280;60583;50.094;8.748;2023-07-13T05:18:57;100451.13;;;20.47;49.24
72558;BME280;60583;50.094;8.748;2023-07-13T05:21:22;100439.50;;;20.51;48.97
72558;BME280;60583;50.094;8.748;2023-07-13T05:23:47;100461.00;;;20.68;48.41
72558;BME280;60583;50.094;8.748;2023-07-13T05:26:13;100463.94;;;20.56;48.63
72558;BME280;60583;50.094;8.748;2023-07-13T05:28:39;100451.47;;;20.60;48.24
72558;BME280;60583;50.094;8.748;2023-07-13T05:31:06;100468.88;;;20.74;48.14
72558;BME280;60583;50.094;8.748;2023-07-13T05:33:32;100465.47;;;20.89;48.29
72558;BME280;60583;50.094;8.748;2023-07-13T05:35:57;100410.50;;;20.47;49.63
72558;BME280;60583;50.094;8.748;2023-07-13T05:38:23;100452.34;;;20.71;49.60
72558;BME280;60583;50.094;8.748;2023-07-13T05:40:50;100472.47;;;20.85;48.87
72558;BME280;60583;50.094;8.748;2023-07-13T05:43:15;100472.72;;;20.78;48.94
72558;BME280;60583;50.094;8.748;2023-07-13T05:45:41;100487.09;;;20.79;48.34
72558;BME280;60583;50.094;8.748;2023-07-13T05:48:06;100476.22;;;20.74;48.67
72558;BME280;60583;50.094;8.748;2023-07-13T05:50:32;100474.59;;;20.78;48.30
72558;BME280;60583;50.094;8.748;2023-07-13T05:52:57;100470.53;;;20.75;47.74
72558;BME280;60583;50.094;8.748;2023-07-13T05:55:23;100478.38;;;20.77;48.09
72558;BME280;60583;50.094;8.748;2023-07-13T05:57:49;100484.09;;;20.80;48.02
72558;BME280;60583;50.094;8.748;2023-07-13T06:00:15;100489.84;;;20.89;47.81
72558;BME280;60583;50.094;8.748;2023-07-13T06:02:40;100477.44;;;21.03;47.06
72558;BME280;60583;50.094;8.748;2023-07-13T06:05:06;100482.41;;;21.16;47.11
72558;BME280;60583;50.094;8.748;2023-07-13T06:07:32;100475.34;;;21.15;46.27
72558;BME280;60583;50.094;8.748;2023-07-13T06:09:57;100490.56;;;21.21;46.91
72558;BME280;60583;50.094;8.748;2023-07-13T06:12:25;100487.28;;;21.09;46.75
72558;BME280;60583;50.094;8.748;2023-07-13T06:14:50;100491.66;;;21.25;46.00
72558;BME280;60583;50.094;8.748;2023-07-13T06:17:15;100492.44;;;21.16;46.47
72558;BME280;60583;50.094;8.748;2023-07-13T06:19:41;100498.22;;;21.39;46.07
72558;BME280;60583;50.094;8.748;2023-07-13T06:22:06;100487.94;;;21.51;45.89
72558;BME280;60583;50.094;8.748;2023-07-13T06:24:32;100486.59;;;21.59;45.43
72558;BME280;60583;50.094;8.748;2023-07-13T06:26:57;100495.56;;;21.59;45.09
72558;BME280;60583;50.094;8.748;2023-07-13T06:29:22;100499.94;;;21.81;45.24
72558;BME280;60583;50.094;8.748;2023-07-13T06:31:48;100503.25;;;22.03;44.99
72558;BME280;60583;50.094;8.748;2023-07-13T06:34:13;100481.25;;;22.04;44.51
72558;BME280;60583;50.094;8.748;2023-07-13T06:36:38;100502.16;;;22.14;44.01
72558;BME280;60583;50.094;8.748;2023-07-13T06:39:04;100507.88;;;22.38;44.47
72558;BME280;60583;50.094;8.748;2023-07-13T06:41:31;100507.59;;;22.39;44.17
72558;BME280;60583;50.094;8.748;2023-07-13T06:43:56;100498.63;;;22.44;43.74
72558;BME280;60583;50.094;8.748;2023-07-13T06:46:22;100509.50;;;22.44;42.91
72558;BME280;60583;50.094;8.748;2023-07-13T06:48:48;100504.88;;;22.54;43.09
72558;BME280;60583;50.094;8.748;2023-07-13T06:51:13;100513.00;;;22.79;42.96
72558;BME280;60583;50.094;8.748;2023-07-13T06:53:39;100496.66;;;22.84;42.87
72558;BME280;60583;50.094;8.748;2023-07-13T06:56:04;100504.53;;;22.91;42.09
72558;BME280;60583;50.094;8.748;2023-07-13T06:58:30;100522.22;;;22.88;42.02
72558;BME280;60583;50.094;8.748;2023-07-13T07:00:56;100509.16;;;23.01;42.46
72558;BME280;60583;50.094;8.748;2023-07-13T07:03:21;100517.72;;;23.38;42.05
72558;BME280;60583;50.094;8.748;2023-07-13T07:05:47;100514.94;;;23.48;41.48
72558;BME280;60583;50.094;8.748;2023-07-13T07:08:12;100522.13;;;23.19;41.18
72558;BME280;60583;50.094;8.748;2023-07-13T07:10:40;100518.69;;;22.93;42.17
72558;BME280;60583;50.094;8.748;2023-07-13T07:13:05;100517.75;;;23.23;42.40
72558;BME280;60583;50.094;8.748;2023-07-13T07:15:31;100525.88;;;23.33;42.02
72558;BME280;60583;50.094;8.748;2023-07-13T07:17:56;100501.06;;;23.44;42.16
72558;BME280;60583;50.094;8.748;2023-07-13T07:20:22;100505.59;;;23.64;41.29
72558;BME280;60583;50.094;8.748;2023-07-13T07:22:47;100529.13;;;23.40;40.86
72558;BME280;60583;50.094;8.748;2023-07-13T07:25:13;100490.06;;;23.06;40.52
72558;BME280;60583;50.094;8.748;2023-07-13T07:27:38;100521.84;;;23.25;41.26
72558;BME280;60583;50.094;8.748;2023-07-13T07:30:06;100520.06;;;23.55;40.35
72558;BME280;60583;50.094;8.748;2023-07-13T07:32:32;100531.56;;;23.41;40.34
72558;BME280;60583;50.094;8.748;2023-07-13T07:34:58;100525.41;;;23.21;41.07
72558;BME280;60583;50.094;8.748;2023-07-13T07:37:24;100532.16;;;23.28;40.71
72558;BME280;60583;50.094;8.748;2023-07-13T07:39:49;100546.06;;;23.17;40.50
72558;BME280;60583;50.094;8.748;2023-07-13T07:42:15;100523.47;;;23.16;40.62
72558;BME280;60583;50.094;8.748;2023-07-13T07:44:41;100527.56;;;23.19;40.37
72558;BME280;60583;50.094;8.748;2023-07-13T07:47:07;100517.16;;;23.41;40.32
72558;BME280;60583;50.094;8.748;2023-07-13T07:49:33;100516.22;;;23.66;39.86
72558;BME280;60583;50.094;8.748;2023-07-13T07:51:59;100530.56;;;23.81;39.77
72558;BME280;60583;50.094;8.748;2023-07-13T07:54:24;100529.91;;;23.94;39.20
72558;BME280;60583;50.094;8.748;2023-07-13T07:56:49;100512.31;;;23.77;39.04
72558;BME280;60583;50.094;8.748;2023-07-13T07:59:15;100504.69;;;24.18;38.83
72558;BME280;60583;50.094;8.748;2023-07-13T08:01:40;100515.25;;;24.29;38.27
72558;BME280;60583;50.094;8.748;2023-07-13T08:04:05;100509.44;;;24.36;38.42
72558;BME280;60583;50.094;8.748;2023-07-13T08:06:32;100530.72;;;24.62;38.12
72558;BME280;60583;50.094;8.748;2023-07-13T08:08:59;100516.38;;;24.81;38.02
72558;BME280;60583;50.094;8.748;2023-07-13T08:11:24;100521.84;;;24.52;38.07
72558;BME280;60583;50.094;8.748;2023-07-13T08:13:50;100522.44;;;24.15;37.75
72558;BME280;60583;50.094;8.748;2023-07-13T08:16:16;100530.84;;;24.19;37.30
72558;BME280;60583;50.094;8.748;2023-07-13T08:18:41;100519.22;;;24.42;37.69
72558;BME280;60583;50.094;8.748;2023-07-13T08:21:08;100531.59;;;24.58;36.51
72558;BME280;60583;50.094;8.748;2023-07-13T08:23:34;100513.69;;;24.75;37.23
72558;BME280;60583;50.094;8.748;2023-07-13T08:26:00;100514.56;;;25.00;36.45
72558;BME280;60583;50.094;8.748;2023-07-13T08:28:27;100513.56;;;24.91;35.28
72558;BME280;60583;50.094;8.748;2023-07-13T08:30:52;100542.28;;;24.83;35.59
72558;BME280;60583;50.094;8.748;2023-07-13T08:33:19;100537.41;;;24.80;35.24
72558;BME280;60583;50.094;8.748;2023-07-13T08:35:48;100521.97;;;25.18;35.89
72558;BME280;60583;50.094;8.748;2023-07-13T08:38:14;100509.19;;;25.37;34.83
72558;BME280;60583;50.094;8.748;2023-07-13T08:40:41;100514.75;;;25.27;34.08
72558;BME280;60583;50.094;8.748;2023-07-13T08:43:15;100524.94;;;25.21;34.14
72558;BME280;60583;50.094;8.748;2023-07-13T08:45:47;100515.59;;;24.75;35.01
72558;BME280;60583;50.094;8.748;2023-07-13T08:48:23;100523.50;;;24.82;34.77
72558;BME280;60583;50.094;8.748;2023-07-13T08:50:59;100525.69;;;25.03;34.54
72558;BME280;60583;50.094;8.748;2023-07-13T08:53:39;100525.97;;;25.25;33.62
72558;BME280;60583;50.094;8.748;2023-07-13T08:56:11;100521.25;;;25.55;33.45
72558;BME280;60583;50.094;8.748;2023-07-13T08:58:41;100529.09;;;25.80;32.88
72558;BME280;60583;50.094;8.748;2023-07-13T09:01:13;100512.56;;;25.53;33.24
72558;BME280;60583;50.094;8.748;2023-07-13T09:03:48;100508.63;;;25.77;33.21
72558;BME280;60583;50.094;8.748;2023-07-13T09:06:20;100510.31;;;25.92;32.88
72558;BME280;60583;50.094;8.748;2023-07-13T09:09:02;100517.47;;;26.07;31.93
72558;BME280;60583;50.094;8.748;2023-07-13T09:11:53;100505.19;;;26.04;31.90
72558;BME280;60583;50.094;8.748;2023-07-13T09:16:53;100508.47;;;26.38;31.63
72558;BME280;60583;50.094;8.748;2023-07-13T09:19:31;100500.81;;;26.40;31.79
72558;BME280;60583;50.094;8.748;2023-07-13T09:21:59;100516.19;;;26.36;31.58
72558;BME280;60583;50.094;8.748;2023-07-13T09:24:37;100493.94;;;26.56;31.66
72558;BME280;60583;50.094;8.748;2023-07-13T09:27:11;100515.19;;;26.78;30.09
72558;BME280;60583;50.094;8.748;2023-07-13T09:29:41;100511.13;;;26.43;29.86
72558;BME280;60583;50.094;8.748;2023-07-13T09:32:13;100499.69;;;26.41;29.88
72558;BME280;60583;50.094;8.748;2023-07-13T09:34:39;100506.31;;;26.68;30.18
72558;BME280;60583;50.094;8.748;2023-07-13T09:37:05;100503.31;;;26.83;30.39
72558;BME280;60583;50.094;8.748;2023-07-13T09:39:37;100519.34;;;27.16;30.74
72558;BME280;60583;50.094;8.748;2023-07-13T09:42:16;100513.69;;;26.86;29.70
72558;BME280;60583;50.094;8.748;2023-07-13T09:44:56;100510.41;;;26.84;29.81
72558;BME280;60583;50.094;8.748;2023-07-13T09:47:26;100521.78;;;26.91;29.94
72558;BME280;60583;50.094;8.748;2023-07-13T09:50:01;100515.09;;;27.10;29.98
72558;BME280;60583;50.094;8.748;2023-07-13T09:52:27;100503.91;;;27.34;29.96
72558;BME280;60583;50.094;8.748;2023-07-13T09:55:04;100504.94;;;27.38;28.42
72558;BME280;60583;50.094;8.748;2023-07-13T09:57:29;100493.47;;;27.09;29.02
72558;BME280;60583;50.094;8.748;2023-07-13T09:59:55;100512.47;;;27.05;28.97
72558;BME280;60583;50.094;8.748;2023-07-13T10:02:29;100520.53;;;27.24;29.24
72558;BME280;60583;50.094;8.748;2023-07-13T10:05:16;100521.56;;;27.28;29.17
72558;BME280;60583;50.094;8.748;2023-07-13T10:07:44;100516.19;;;27.50;28.91
72558;BME280;60583;50.094;8.748;2023-07-13T10:10:18;100515.16;;;27.96;28.58
72558;BME280;60583;50.094;8.748;2023-07-13T10:12:45;100520.41;;;28.06;28.65
72558;BME280;60583;50.094;8.748;2023-07-13T10:15:17;100509.81;;;28.13;27.91
72558;BME280;60583;50.094;8.748;2023-07-13T10:17:44;100514.72;;;28.02;28.22
72558;BME280;60583;50.094;8.748;2023-07-13T10:20:10;100509.44;;;28.06;28.94
72558;BME280;60583;50.094;8.748;2023-07-13T10:25:20;100505.66;;;27.79;28.18
72558;BME280;60583;50.094;8.748;2023-07-13T10:27:49;100518.69;;;27.74;28.22
72558;BME280;60583;50.094;8.748;2023-07-13T10:30:21;100499.44;;;27.88;27.86
72558;BME280;60583;50.094;8.748;2023-07-13T10:32:49;100498.09;;;28.21;27.16
72558;BME280;60583;50.094;8.748;2023-07-13T10:35:18;100509.50;;;28.36;27.49
72558;BME280;60583;50.094;8.748;2023-07-13T10:38:01;100509.66;;;28.40;28.05
72558;BME280;60583;50.094;8.748;2023-07-13T10:40:43;100498.00;;;28.87;28.24
72558;BME280;60583;50.094;8.748;2023-07-13T10:43:41;100505.63;;;28.99;27.15
72558;BME280;60583;50.094;8.748;2023-07-13T10:46:11;100492.06;;;28.63;27.17
72558;BME280;60583;50.094;8.748;2023-07-13T10:48:38;100518.75;;;27.82;28.10
72558;BME280;60583;50.094;8.748;2023-07-13T10:51:06;100518.09;;;27.99;28.12
72558;BME280;60583;50.094;8.748;2023-07-13T10:53:37;100514.94;;;28.06;28.34
72558;BME280;60583;50.094;8.748;2023-07-13T10:58:44;100509.50;;;29.46;26.77
72558;BME280;60583;50.094;8.748;2023-07-13T11:01:13;100478.16;;;29.64;26.35
72558;BME280;60583;50.094;8.748;2023-07-13T11:04:01;100511.84;;;29.78;26.10
72558;BME280;60583;50.094;8.748;2023-07-13T11:06:37;100486.69;;;28.58;26.89
72558;BME280;60583;50.094;8.748;2023-07-13T11:11:58;100500.47;;;29.71;25.86
72558;BME280;60583;50.094;8.748;2023-07-13T11:14:35;100494.00;;;29.67;25.75
72558;BME280;60583;50.094;8.748;2023-07-13T11:22:46;100487.25;;;29.90;25.26
72558;BME280;60583;50.094;8.748;2023-07-13T11:27:51;100482.22;;;30.01;24.28
72558;BME280;60583;50.094;8.748;2023-07-13T11:33:21;100489.97;;;29.08;25.25
72558;BME280;60583;50.094;8.748;2023-07-13T11:38:38;100472.00;;;29.33;25.58
72558;BME280;60583;50.094;8.748;2023-07-13T11:43:38;100488.53;;;28.40;26.16
72558;BME280;60583;50.094;8.748;2023-07-13T11:46:20;100478.84;;;28.65;25.21
72558;BME280;60583;50.094;8.748;2023-07-13T11:48:47;100479.41;;;29.41;24.95
72558;BME280;60583;50.094;8.748;2023-07-13T11:51:22;100473.44;;;29.39;24.81
72558;BME280;60583;50.094;8.748;2023-07-13T11:53:50;100476.38;;;30.02;24.50
72558;BME280;60583;50.094;8.748;2023-07-13T11:56:16;100471.06;;;29.97;24.74
72558;BME280;60583;50.094;8.748;2023-07-13T11:58:42;100486.41;;;29.64;24.97
72558;BME280;60583;50.094;8.748;2023-07-13T12:01:23;100479.56;;;29.27;25.65
72558;BME280;60583;50.094;8.748;2023-07-13T12:03:51;100475.22;;;28.95;25.67
72558;BME280;60583;50.094;8.748;2023-07-13T12:06:47;100483.44;;;28.56;26.46
72558;BME280;60583;50.094;8.748;2023-07-13T12:09:18;100476.25;;;28.38;26.63
72558;BME280;60583;50.094;8.748;2023-07-13T12:11:45;100486.63;;;27.97;27.71
72558;BME280;60583;50.094;8.748;2023-07-13T12:14:17;100486.16;;;28.17;27.38
72558;BME280;60583;50.094;8.748;2023-07-13T12:16:44;100459.84;;;27.58;27.67
72558;BME280;60583;50.094;8.748;2023-07-13T12:19:29;100489.56;;;27.64;27.47
72558;BME280;60583;50.094;8.748;2023-07-13T12:21:58;100489.75;;;28.04;27.34
72558;BME280;60583;50.094;8.748;2023-07-13T12:24:25;100486.03;;;27.64;27.07
72558;BME280;60583;50.094;8.748;2023-07-13T12:27:02;100485.22;;;27.85;26.90
72558;BME280;60583;50.094;8.748;2023-07-13T12:29:31;100482.97;;;27.65;27.34
72558;BME280;60583;50.094;8.748;2023-07-13T12:31:56;100495.16;;;27.59;27.61
72558;BME280;60583;50.094;8.748;2023-07-13T12:34:24;100496.00;;;27.46;28.10
72558;BME280;60583;50.094;8.748;2023-07-13T12:36:55;100497.22;;;27.40;27.88
72558;BME280;60583;50.094;8.748;2023-07-13T12:39:33;100500.25;;;27.52;27.59
72558;BME280;60583;50.094;8.748;2023-07-13T12:44:46;100469.69;;;26.96;27.92
72558;BME280;60583;50.094;8.748;2023-07-13T12:47:14;100480.66;;;26.63;27.91
72558;BME280;60583;50.094;8.748;2023-07-13T12:49:49;100506.06;;;26.83;28.41
72558;BME280;60583;50.094;8.748;2023-07-13T12:52:36;100502.53;;;26.96;28.73
72558;BME280;60583;50.094;8.748;2023-07-13T12:55:07;100508.16;;;26.72;29.10
72558;BME280;60583;50.094;8.748;2023-07-13T12:57:50;100487.56;;;26.75;28.85
72558;BME280;60583;50.094;8.748;2023-07-13T13:00:28;100494.25;;;26.69;29.20
72558;BME280;60583;50.094;8.748;2023-07-13T13:02:56;100488.53;;;26.97;28.42
72558;BME280;60583;50.094;8.748;2023-07-13T13:05:25;100504.22;;;26.92;28.66
72558;BME280;60583;50.094;8.748;2023-07-13T13:07:51;100475.34;;;26.86;29.11
72558;BME280;60583;50.094;8.748;2023-07-13T13:10:17;100497.63;;;27.06;29.29
72558;BME280;60583;50.094;8.748;2023-07-13T13:12:43;100500.06;;;27.21;29.25
72558;BME280;60583;50.094;8.748;2023-07-13T13:15:10;100479.28;;;27.07;29.68
72558;BME280;60583;50.094;8.748;2023-07-13T13:17:40;100494.41;;;27.18;28.50
72558;BME280;60583;50.094;8.748;2023-07-13T13:20:15;100482.91;;;27.30;29.16
72558;BME280;60583;50.094;8.748;2023-07-13T13:22:41;100491.63;;;27.45;28.90
72558;BME280;60583;50.094;8.748;2023-07-13T13:25:13;100506.53;;;27.66;28.80
72558;BME280;60583;50.094;8.748;2023-07-13T13:27:41;100505.66;;;27.44;29.07